Time;durP1;ratioP1;P1;durP2;ratioP2;P2;SDS_P1;SDS_P2;PMS_P1;PMS_P2;Temp;Humidity;BMP_temperature;BMP_pressure;BME280_temperature;BME280_humidity;BME280_pressure;Samples;Min_cycle;Max_cycle;Signal;HPM_P1;HPM_P2
2022/10/06 00:00:32;;;;;;;0.63;0.63;;;;;;;12.49;77.10;100703.91;5015741;28;20202;-71
2022/10/06 00:02:59;;;;;;;0.60;0.60;;;;;;;12.53;77.71;100708.13;5020626;28;20282;-70
2022/10/06 00:05:26;;;;;;;0.50;0.50;;;;;;;12.46;77.68;100701.38;5019139;28;20682;-70
2022/10/06 00:07:54;;;;;;;0.40;0.40;;;;;;;12.49;78.26;100708.19;5015992;28;20202;-70
2022/10/06 00:10:21;;;;;;;0.50;0.50;;;;;;;12.47;77.89;100700.47;5011331;28;20927;-70
2022/10/06 00:12:50;;;;;;;0.40;0.40;;;;;;;12.46;77.97;100708.25;5014720;28;20218;-70
2022/10/06 00:15:20;;;;;;;0.50;0.50;;;;;;;12.43;78.49;100706.56;5011683;28;20260;-70
2022/10/06 00:17:48;;;;;;;0.70;0.70;;;;;;;12.37;78.31;100698.13;5011275;28;20217;-70
2022/10/06 00:20:14;;;;;;;0.50;0.50;;;;;;;12.34;78.72;100699.00;5021316;28;20194;-70
2022/10/06 00:22:43;;;;;;;0.40;0.40;;;;;;;12.27;78.33;100697.41;5012032;28;20629;-69
2022/10/06 00:25:12;;;;;;;0.40;0.40;;;;;;;12.23;78.67;100698.34;5018567;28;20194;-69
2022/10/06 00:27:41;;;;;;;0.53;0.53;;;;;;;12.06;78.86;100672.03;5011582;28;20217;-71
2022/10/06 00:30:10;;;;;;;0.60;0.60;;;;;;;12.15;78.85;100689.88;5011323;28;20230;-69
2022/10/06 00:32:39;;;;;;;0.57;0.57;;;;;;;12.10;78.72;100683.97;5011402;28;20698;-70
2022/10/06 00:35:08;;;;;;;0.50;0.50;;;;;;;12.02;78.37;100686.66;5016934;28;20198;-69
2022/10/06 00:37:37;;;;;;;0.60;0.60;;;;;;;11.92;78.90;100689.41;5025542;28;20216;-69
2022/10/06 00:40:07;;;;;;;0.60;0.60;;;;;;;11.92;78.56;100684.28;5030191;28;20194;-70
2022/10/06 00:42:34;;;;;;;0.50;0.50;;;;;;;11.90;78.89;100683.44;5023965;28;20224;-70
2022/10/06 00:45:05;;;;;;;0.40;0.40;;;;;;;11.89;78.67;100689.47;5024472;28;20201;-70
2022/10/06 00:47:33;;;;;;;0.50;0.50;;;;;;;11.84;78.56;100689.53;5013098;28;20202;-70
2022/10/06 00:50:02;;;;;;;0.60;0.60;;;;;;;11.76;78.74;100678.50;5020847;28;20676;-70
2022/10/06 00:52:31;;;;;;;0.60;0.60;;;;;;;11.72;79.37;100681.13;5017363;28;20214;-69
2022/10/06 00:54:59;;;;;;;0.57;0.57;;;;;;;11.66;79.58;100681.19;5023939;28;20201;-70
2022/10/06 00:57:27;;;;;;;0.47;0.47;;;;;;;11.56;79.66;100681.34;5013808;28;20197;-69
2022/10/06 00:59:54;;;;;;;1.00;1.00;;;;;;;11.50;80.40;100676.25;5030912;28;20194;-70
2022/10/06 01:02:27;;;;;;;0.60;0.60;;;;;;;11.35;80.43;100666.19;5013550;28;20220;-70
2022/10/06 01:04:59;;;;;;;0.47;0.47;;;;;;;11.35;80.97;100671.34;5027910;28;20607;-70
2022/10/06 01:07:29;;;;;;;0.70;0.70;;;;;;;11.34;81.01;100674.75;5028260;28;20697;-70
2022/10/06 01:09:56;;;;;;;0.50;0.50;;;;;;;11.23;81.19;100666.38;5029422;28;20201;-69
2022/10/06 01:12:25;;;;;;;0.60;0.60;;;;;;;11.25;81.50;100674.03;5028668;28;20228;-70
2022/10/06 01:14:52;;;;;;;0.47;0.47;;;;;;;11.25;81.35;100669.75;5030490;28;20208;-70
2022/10/06 01:17:21;;;;;;;0.50;0.50;;;;;;;11.25;81.98;100679.16;5030567;28;20205;-69
2022/10/06 01:19:52;;;;;;;0.50;0.50;;;;;;;11.24;82.14;100673.22;5030495;28;20636;-70
2022/10/06 01:22:26;;;;;;;0.60;0.60;;;;;;;11.17;82.43;100674.16;5030703;28;20579;-69
2022/10/06 01:24:53;;;;;;;0.50;0.50;;;;;;;11.18;82.38;100673.25;5030701;28;20204;-70
2022/10/06 01:27:21;;;;;;;0.50;0.50;;;;;;;11.08;82.76;100671.69;5030504;28;20197;-70
2022/10/06 01:29:52;;;;;;;0.50;0.50;;;;;;;11.00;83.04;100669.22;5029998;28;20197;-71
2022/10/06 01:32:19;;;;;;;0.70;0.70;;;;;;;11.05;83.00;100671.69;5028618;28;20193;-70
2022/10/06 01:34:46;;;;;;;0.60;0.60;;;;;;;11.06;83.26;100675.97;5028453;28;20228;-69
2022/10/06 01:37:13;;;;;;;0.60;0.60;;;;;;;11.01;83.33;100672.63;5030298;28;20204;-70
2022/10/06 01:39:41;;;;;;;0.60;0.60;;;;;;;10.99;83.29;100672.63;5030179;28;20194;-70
2022/10/06 01:42:08;;;;;;;0.50;0.50;;;;;;;10.97;83.38;100678.66;5030142;28;20202;-69
2022/10/06 01:44:35;;;;;;;0.50;0.50;;;;;;;10.93;83.38;100680.41;5030313;28;20206;-70
2022/10/06 01:47:04;;;;;;;0.50;0.50;;;;;;;10.84;83.61;100671.97;5030295;28;20688;-70
2022/10/06 01:49:31;;;;;;;0.70;0.70;;;;;;;10.83;83.92;100675.38;5030880;28;20736;-70
2022/10/06 01:51:58;;;;;;;0.60;0.60;;;;;;;10.87;83.44;100684.75;5029961;28;20206;-69
2022/10/06 01:54:25;;;;;;;0.57;0.57;;;;;;;10.76;83.64;100658.38;5029522;28;20218;-70
2022/10/06 01:56:53;;;;;;;0.50;0.50;;;;;;;10.88;83.26;100676.19;5032104;28;20205;-70
2022/10/06 01:59:20;;;;;;;0.50;0.50;;;;;;;10.85;82.92;100673.66;5033012;28;20205;-70
2022/10/06 02:01:47;;;;;;;0.50;0.50;;;;;;;10.86;83.14;100670.22;5033970;28;20284;-70
2022/10/06 02:04:13;;;;;;;0.53;0.53;;;;;;;10.88;83.09;100668.50;5033003;28;20232;-70
2022/10/06 02:06:40;;;;;;;0.40;0.40;;;;;;;10.89;82.88;100670.19;5033865;28;20577;-69
2022/10/06 02:09:07;;;;;;;0.60;0.60;;;;;;;10.90;82.76;100666.75;5031547;28;20209;-69
2022/10/06 02:11:34;;;;;;;0.50;0.50;;;;;;;10.93;82.55;100661.59;5033486;28;20205;-69
2022/10/06 02:14:02;;;;;;;0.77;0.77;;;;;;;10.91;82.25;100663.34;5033583;28;20218;-69
2022/10/06 02:16:30;;;;;;;0.50;0.50;;;;;;;10.93;82.29;100659.03;5032355;28;20198;-69
2022/10/06 02:18:57;;;;;;;0.93;0.93;;;;;;;10.95;82.37;100670.13;5034091;28;20255;-69
2022/10/06 02:21:24;;;;;;;0.47;0.47;;;;;;;10.91;82.58;100673.59;5033677;28;20227;-69
2022/10/06 02:23:51;;;;;;;0.50;0.50;;;;;;;10.79;82.27;100664.31;5033533;28;20573;-69
2022/10/06 02:26:18;;;;;;;0.63;0.63;;;;;;;10.83;83.23;100670.25;5033478;28;20197;-70
2022/10/06 02:28:46;;;;;;;0.60;0.60;;;;;;;10.76;83.14;100663.50;5032099;28;20396;-70
2022/10/06 02:31:15;;;;;;;0.67;0.67;;;;;;;10.77;83.48;100676.31;5033146;28;20651;-69
2022/10/06 02:33:42;;;;;;;0.50;0.50;;;;;;;10.72;83.97;100664.41;5033485;28;20269;-69
2022/10/06 02:36:12;;;;;;;0.60;0.60;;;;;;;10.75;84.23;100666.94;5033686;28;20194;-69
2022/10/06 02:38:40;;;;;;;0.47;0.47;;;;;;;10.71;84.46;100670.38;5035205;28;20665;-68
2022/10/06 02:41:07;;;;;;;0.70;0.70;;;;;;;10.51;84.49;100637.25;5034014;28;20198;-68
2022/10/06 02:43:34;;;;;;;0.70;0.70;;;;;;;10.61;85.10;100666.22;5033398;28;20251;-69
2022/10/06 02:46:04;;;;;;;0.50;0.50;;;;;;;10.56;85.58;100665.44;5033331;28;20631;-69
2022/10/06 02:48:33;;;;;;;0.50;0.50;;;;;;;10.48;85.39;100663.78;5033953;28;20194;-71
2022/10/06 02:51:02;;;;;;;0.50;0.50;;;;;;;10.42;85.81;100663.00;5033134;28;20205;-69
2022/10/06 02:53:29;;;;;;;0.70;0.70;;;;;;;10.32;86.21;100664.78;5033899;28;20282;-69
2022/10/06 02:56:00;;;;;;;0.53;0.53;;;;;;;10.31;85.90;100663.06;5034778;28;20197;-69
2022/10/06 02:58:28;;;;;;;0.60;0.60;;;;;;;10.30;85.47;100656.28;5032556;28;20240;-69
2022/10/06 03:00:55;;;;;;;0.60;0.60;;;;;;;10.28;85.14;100660.53;5033070;28;20205;-69
2022/10/06 03:03:22;;;;;;;0.43;0.43;;;;;;;10.25;85.58;100663.13;5031770;28;20221;-68
2022/10/06 03:05:50;;;;;;;0.57;0.57;;;;;;;10.23;85.84;100667.44;5028571;28;20628;-68
2022/10/06 03:08:17;;;;;;;0.60;0.60;;;;;;;10.22;86.17;100665.72;5032248;28;20248;-68
2022/10/06 03:10:43;;;;;;;0.60;0.60;;;;;;;10.02;86.15;100647.06;5032916;28;20665;-69
2022/10/06 03:13:10;;;;;;;0.70;0.70;;;;;;;10.10;86.30;100670.94;5032403;28;20274;-69
2022/10/06 03:15:37;;;;;;;0.40;0.40;;;;;;;10.08;86.90;100666.69;5032398;28;20653;-68
2022/10/06 03:18:04;;;;;;;0.57;0.57;;;;;;;10.03;86.73;100654.75;5032799;28;20205;-69
2022/10/06 03:20:31;;;;;;;0.57;0.57;;;;;;;10.12;86.71;100656.38;5032693;28;20212;-69
2022/10/06 03:22:59;;;;;;;0.60;0.60;;;;;;;10.09;86.35;100653.00;5032509;28;20201;-69
2022/10/06 03:25:25;;;;;;;0.60;0.60;;;;;;;10.14;86.91;100664.09;5032580;28;20194;-69
2022/10/06 03:27:52;;;;;;;0.70;0.70;;;;;;;10.18;86.45;100665.78;5035714;28;20205;-69
2022/10/06 03:30:19;;;;;;;0.70;0.70;;;;;;;10.11;86.44;100647.00;5032492;28;20205;-69
2022/10/06 03:32:46;;;;;;;0.70;0.70;;;;;;;10.20;87.22;100662.34;5030235;28;20271;-70
2022/10/06 03:35:13;;;;;;;0.60;0.60;;;;;;;10.16;87.08;100663.22;5032000;28;20208;-69
2022/10/06 03:37:40;;;;;;;0.63;0.63;;;;;;;10.18;86.51;100658.09;5032126;28;20197;-69
2022/10/06 03:40:09;;;;;;;0.50;0.50;;;;;;;10.16;87.27;100659.81;5032164;28;20669;-69
2022/10/06 03:42:36;;;;;;;0.73;0.73;;;;;;;10.15;86.97;100663.22;5032190;28;20197;-69
2022/10/06 03:45:03;;;;;;;0.53;0.53;;;;;;;10.14;86.43;100659.84;5031997;28;20201;-69
2022/10/06 03:47:30;;;;;;;0.60;0.60;;;;;;;10.14;86.56;100656.41;5031944;28;20204;-69
2022/10/06 03:49:57;;;;;;;0.63;0.63;;;;;;;10.12;86.74;100653.81;5031815;28;20232;-69
2022/10/06 03:52:24;;;;;;;0.60;0.60;;;;;;;10.13;86.37;100660.66;5034197;28;20264;-69
2022/10/06 03:54:51;;;;;;;0.50;0.50;;;;;;;10.13;86.33;100654.69;5031826;28;20217;-69
2022/10/06 03:57:19;;;;;;;4.80;0.90;;;;;;;10.07;86.69;100665.84;5030449;28;20280;-69
2022/10/06 03:59:46;;;;;;;0.63;0.63;;;;;;;10.01;86.73;100658.19;5030997;28;20205;-69
2022/10/06 04:02:12;;;;;;;0.50;0.50;;;;;;;10.04;87.19;100655.59;5032536;28;20201;-69
2022/10/06 04:04:39;;;;;;;0.67;0.67;;;;;;;9.97;86.76;100656.50;5030320;28;20252;-69
2022/10/06 04:07:06;;;;;;;0.50;0.50;;;;;;;9.94;87.42;100659.09;5031568;28;20210;-69
2022/10/06 04:09:33;;;;;;;0.60;0.60;;;;;;;9.94;87.22;100664.22;5031722;28;20209;-70
2022/10/06 04:11:59;;;;;;;0.50;0.50;;;;;;;9.89;87.06;100660.81;5031408;28;20263;-68
2022/10/06 04:14:28;;;;;;;0.50;0.50;;;;;;;9.81;87.64;100653.22;5031321;28;20343;-69
2022/10/06 04:16:55;;;;;;;0.50;0.50;;;;;;;9.74;87.62;100654.13;5031664;28;20625;-70
2022/10/06 04:19:22;;;;;;;0.53;0.53;;;;;;;9.68;88.11;100650.75;5031357;28;20743;-69
2022/10/06 04:21:49;;;;;;;0.60;0.60;;;;;;;9.64;88.86;100649.06;5031295;28;20696;-69
2022/10/06 04:24:17;;;;;;;0.50;0.50;;;;;;;9.64;88.66;100649.06;5031109;28;20201;-69
2022/10/06 04:26:45;;;;;;;0.50;0.50;;;;;;;9.55;89.52;100649.13;5031809;28;20291;-69
2022/10/06 04:29:12;;;;;;;0.60;0.60;;;;;;;9.49;89.16;100650.03;5031230;28;20204;-69
2022/10/06 04:31:41;;;;;;;0.63;0.63;;;;;;;9.41;88.94;100652.59;5031276;28;20722;-69
2022/10/06 04:34:10;;;;;;;0.70;0.70;;;;;;;9.42;88.67;100649.19;5031244;28;20263;-69
2022/10/06 04:36:39;;;;;;;0.60;0.60;;;;;;;9.41;88.16;100636.41;5031932;28;20205;-69
2022/10/06 04:39:11;;;;;;;0.63;0.63;;;;;;;9.44;87.74;100638.94;5028870;28;20209;-68
2022/10/06 04:41:40;;;;;;;0.50;0.50;;;;;;;9.44;87.69;100642.34;5029360;28;20586;-69
2022/10/06 04:44:07;;;;;;;0.50;0.50;;;;;;;9.46;87.94;100638.09;5032267;28;20251;-69
2022/10/06 04:46:35;;;;;;;0.93;0.93;;;;;;;9.34;87.27;100622.78;5030716;28;20248;-69
2022/10/06 04:49:03;;;;;;;0.60;0.60;;;;;;;9.45;87.35;100649.19;5028291;28;21347;-69
2022/10/06 04:51:30;;;;;;;0.50;0.50;;;;;;;9.49;87.69;100638.06;5030748;28;20688;-69
2022/10/06 04:53:57;;;;;;;0.50;0.50;;;;;;;9.52;88.00;100646.59;5034678;28;20252;-69
2022/10/06 04:56:25;;;;;;;0.60;0.60;;;;;;;9.55;88.12;100644.00;5031802;28;20578;-68
2022/10/06 04:58:54;;;;;;;0.40;0.40;;;;;;;9.60;88.22;100647.38;5026753;28;20242;-69
2022/10/06 05:01:23;;;;;;;0.87;0.87;;;;;;;9.62;88.72;100645.66;5031382;28;20212;-69
2022/10/06 05:03:51;;;;;;;0.63;0.63;;;;;;;9.50;88.83;100626.09;5029964;28;20222;-69
2022/10/06 05:06:21;;;;;;;0.50;0.50;;;;;;;9.67;89.04;100654.16;5030067;28;20212;-69
2022/10/06 05:08:48;;;;;;;0.60;0.60;;;;;;;9.70;89.17;100661.81;5026324;28;20205;-69
2022/10/06 05:11:16;;;;;;;0.70;0.70;;;;;;;9.72;89.22;100655.84;5030505;28;20200;-69
2022/10/06 05:13:43;;;;;;;0.50;0.50;;;;;;;9.72;89.27;100662.69;5027827;28;20681;-69
2022/10/06 05:16:13;;;;;;;0.50;0.50;;;;;;;9.74;89.78;100655.81;5030885;28;20213;-69
2022/10/06 05:18:40;;;;;;;0.50;0.50;;;;;;;9.82;89.90;100664.31;5023452;28;20201;-69
2022/10/06 05:21:10;;;;;;;0.50;0.50;;;;;;;9.86;90.02;100664.28;5030162;28;20190;-69
2022/10/06 05:23:40;;;;;;;0.60;0.60;;;;;;;9.89;89.96;100661.69;5030495;28;20760;-70
2022/10/06 05:26:07;;;;;;;0.60;0.60;;;;;;;9.91;90.37;100659.13;5030189;28;20229;-69
2022/10/06 05:28:34;;;;;;;0.47;0.47;;;;;;;9.87;90.74;100639.50;5030411;28;20216;-69
2022/10/06 05:31:04;;;;;;;0.50;0.50;;;;;;;10.00;90.67;100653.94;5029752;28;20205;-69
2022/10/06 05:33:33;;;;;;;0.50;0.50;;;;;;;10.02;90.99;100641.94;5030306;28;20198;-69
2022/10/06 05:36:01;;;;;;;0.63;0.63;;;;;;;10.19;90.81;100659.78;5028067;28;20264;-69
2022/10/06 05:38:28;;;;;;;0.63;0.63;;;;;;;10.34;90.49;100660.47;5020851;28;20210;-69
2022/10/06 05:41:03;;;;;;;0.57;0.57;;;;;;;10.50;90.63;100666.34;5028868;28;20683;-69
2022/10/06 05:43:30;;;;;;;0.70;0.70;;;;;;;10.68;89.76;100678.13;5030778;28;20201;-69
2022/10/06 05:45:59;;;;;;;0.50;0.50;;;;;;;10.79;89.71;100684.00;5030252;28;20627;-69
2022/10/06 05:48:27;;;;;;;0.50;0.50;;;;;;;10.89;88.38;100685.56;5030145;28;20198;-69
2022/10/06 05:51:02;;;;;;;0.50;0.50;;;;;;;10.99;89.13;100682.03;5029963;28;20202;-70
2022/10/06 05:53:29;;;;;;;0.70;0.70;;;;;;;11.06;89.00;100679.41;5027440;28;20425;-69
2022/10/06 05:56:06;;;;;;;0.40;0.40;;;;;;;11.14;88.67;100679.31;5030071;28;20201;-67
2022/10/06 05:58:34;;;;;;;0.50;0.50;;;;;;;11.15;89.59;100681.00;5026139;28;20213;-68
2022/10/06 06:01:19;;;;;;;0.40;0.40;;;;;;;11.17;90.52;100686.97;5025620;28;20209;-69
2022/10/06 06:03:48;;;;;;;0.50;0.50;;;;;;;11.23;90.43;100686.91;5025304;28;20284;-67
2022/10/06 06:06:17;;;;;;;0.50;0.50;;;;;;;11.26;91.50;100686.84;5025757;28;20205;-67
2022/10/06 06:08:43;;;;;;;0.40;0.40;;;;;;;11.31;91.90;100689.38;5029554;28;20201;-66
2022/10/06 06:11:12;;;;;;;0.40;0.40;;;;;;;11.20;90.92;100679.25;5031818;28;20687;-67
2022/10/06 06:13:39;;;;;;;0.50;0.50;;;;;;;11.27;91.53;100688.56;5030008;28;20209;-67
2022/10/06 06:16:06;;;;;;;0.63;0.63;;;;;;;11.30;91.76;100698.81;5029771;28;20205;-67
2022/10/06 06:18:35;;;;;;;0.50;0.50;;;;;;;11.37;91.21;100699.56;5030735;28;20209;-66
2022/10/06 06:21:05;;;;;;;0.60;0.60;;;;;;;11.49;92.07;100701.97;5022274;28;20217;-67
2022/10/06 06:23:34;;;;;;;0.60;0.60;;;;;;;11.58;91.48;100700.13;5030702;28;20708;-66
2022/10/06 06:26:03;;;;;;;0.50;0.50;;;;;;;11.58;91.64;100691.56;5028280;28;20209;-66
2022/10/06 06:28:32;;;;;;;0.50;0.50;;;;;;;11.81;91.24;100706.69;5027560;28;20289;-67
2022/10/06 06:31:01;;;;;;;0.60;0.60;;;;;;;11.87;90.75;100706.59;5029352;28;20213;-71
2022/10/06 06:33:28;;;;;;;0.50;0.50;;;;;;;12.04;90.27;100709.78;5028807;28;20256;-66
2022/10/06 06:35:56;;;;;;;0.60;0.60;;;;;;;12.18;89.28;100707.81;5029443;28;20222;-66
2022/10/06 06:38:23;;;;;;;0.50;0.50;;;;;;;12.34;90.00;100701.56;5028670;28;20193;-66
2022/10/06 06:40:49;;;;;;;0.70;0.70;;;;;;;12.44;88.09;100685.09;5029425;28;20201;-68
2022/10/06 06:43:16;;;;;;;0.47;0.47;;;;;;;12.67;87.43;100702.72;5030850;28;20198;-66
2022/10/06 06:45:44;;;;;;;0.50;0.50;;;;;;;12.85;85.90;100702.38;5033715;28;20193;-66
2022/10/06 06:48:14;;;;;;;0.60;0.60;;;;;;;13.00;84.23;100698.66;5033387;28;20193;-66
2022/10/06 06:50:41;;;;;;;0.60;0.60;;;;;;;13.23;83.40;100696.53;5033077;28;20209;-67
2022/10/06 06:53:07;;;;;;;0.70;0.70;;;;;;;13.44;81.35;100688.34;5031348;28;20197;-67
2022/10/06 06:55:34;;;;;;;0.60;0.60;;;;;;;13.59;79.78;100693.19;5031949;28;20217;-67
2022/10/06 06:58:01;;;;;;;0.40;0.40;;;;;;;13.81;79.61;100690.97;5032269;28;20209;-67
2022/10/06 07:00:27;;;;;;;0.50;0.50;;;;;;;14.00;78.69;100689.66;5032152;28;20209;-67
2022/10/06 07:02:59;;;;;;;0.60;0.60;;;;;;;14.21;75.68;100685.72;5032119;28;20222;-67
2022/10/06 07:05:26;;;;;;;0.53;0.53;;;;;;;14.30;75.36;100677.75;5033272;28;20284;-65
2022/10/06 07:07:53;;;;;;;0.40;0.40;;;;;;;14.59;73.87;100695.94;5031052;28;20297;-67
2022/10/06 07:10:19;;;;;;;0.67;0.67;;;;;;;14.76;73.05;100690.34;5033585;28;20228;-68
2022/10/06 07:12:46;;;;;;;0.50;0.50;;;;;;;14.95;72.43;100685.53;5032389;28;20206;-68
2022/10/06 07:26:15;;;;;;;0.53;0.53;;;;;;;16.03;65.95;100677.97;5033442;28;20632;-68
2022/10/06 07:28:42;;;;;;;0.43;0.43;;;;;;;16.33;65.01;100679.56;5032503;28;20258;-67
2022/10/06 07:31:09;;;;;;;0.60;0.60;;;;;;;16.49;63.96;100682.50;5032186;28;20220;-68
2022/10/06 07:33:39;;;;;;;0.50;0.50;;;;;;;16.59;63.69;100674.41;5030536;28;20213;-68
2022/10/06 07:36:06;;;;;;;0.50;0.50;;;;;;;16.65;63.74;100662.97;5023609;28;20601;-69
2022/10/06 07:38:33;;;;;;;0.60;0.60;;;;;;;16.84;62.00;100669.19;5031519;28;20201;-67
2022/10/06 07:41:00;;;;;;;0.60;0.60;;;;;;;17.06;61.81;100664.13;5032166;28;20213;-70
2022/10/06 07:43:26;;;;;;;0.60;0.60;;;;;;;17.21;61.39;100663.53;5031116;28;20643;-74
2022/10/06 07:45:53;;;;;;;0.40;0.40;;;;;;;17.31;61.08;100659.69;5028347;28;20228;-66
2022/10/06 07:48:22;;;;;;;0.50;0.50;;;;;;;17.42;60.24;100649.75;5036226;28;20193;-67
2022/10/06 07:50:52;;;;;;;0.50;0.50;;;;;;;17.48;61.10;100657.28;5031795;28;20650;-68
2022/10/06 07:53:19;;;;;;;0.50;0.50;;;;;;;17.58;59.32;100648.28;5027565;28;20720;-68
2022/10/06 07:55:48;;;;;;;0.50;0.50;;;;;;;17.58;59.39;100648.28;5031428;28;20278;-68
2022/10/06 07:58:18;;;;;;;0.57;0.57;;;;;;;17.72;60.37;100627.84;5031614;28;20208;-67
2022/10/06 08:00:47;;;;;;;0.50;0.50;;;;;;;17.99;58.04;100632.84;5032396;28;20205;-69
2022/10/06 08:03:16;;;;;;;0.50;0.50;;;;;;;18.12;57.50;100639.22;5032098;28;20226;-66
2022/10/06 08:05:43;;;;;;;0.40;0.40;;;;;;;18.07;57.44;100634.19;5028140;28;20236;-68
2022/10/06 08:08:13;;;;;;;0.40;0.40;;;;;;;18.23;57.69;100630.06;5031668;28;20669;-68
2022/10/06 08:10:41;;;;;;;0.80;0.80;;;;;;;18.42;57.60;100624.91;5032573;28;20273;-70
2022/10/06 08:13:09;;;;;;;0.50;0.50;;;;;;;18.50;57.02;100628.09;5032599;28;20213;-69
2022/10/06 08:15:36;;;;;;;0.33;0.33;;;;;;;18.69;56.21;100628.97;5031417;28;20217;-66
2022/10/06 08:18:04;;;;;;;0.40;0.40;;;;;;;18.87;55.81;100628.16;5032168;28;20205;-66
2022/10/06 08:20:30;;;;;;;0.40;0.40;;;;;;;19.05;55.63;100633.44;5032296;28;20206;-72
2022/10/06 08:22:57;;;;;;;0.50;0.50;;;;;;;19.15;54.85;100629.50;5029773;28;20264;-73
2022/10/06 08:25:25;;;;;;;0.40;0.40;;;;;;;19.20;54.41;100624.94;5031682;28;20197;-70
2022/10/06 08:27:52;;;;;;;0.40;0.40;;;;;;;19.30;54.99;100624.44;5029528;28;20197;-74
2022/10/06 08:30:19;;;;;;;0.40;0.40;;;;;;;19.43;53.43;100619.53;5031756;28;20210;-69
2022/10/06 08:32:46;;;;;;;0.43;0.43;;;;;;;19.52;53.21;100618.25;5033881;28;20201;-70
2022/10/06 08:35:13;;;;;;;0.40;0.40;;;;;;;19.59;54.37;100615.28;5031685;28;20213;-71
2022/10/06 08:37:40;;;;;;;0.93;0.93;;;;;;;19.61;53.86;100623.84;5022050;28;20221;-71
2022/10/06 08:40:09;;;;;;;0.30;0.30;;;;;;;19.70;53.58;100615.63;5031697;28;20256;-71
2022/10/06 08:42:41;;;;;;;0.40;0.40;;;;;;;19.86;53.44;100613.13;5031175;28;20206;-70
2022/10/06 08:45:14;;;;;;;0.50;0.50;;;;;;;19.97;53.09;100618.63;5032615;28;20254;-70
2022/10/06 08:47:50;;;;;;;0.40;0.40;;;;;;;20.12;53.01;100615.28;5029025;28;20203;-68
2022/10/06 08:50:20;;;;;;;0.30;0.30;;;;;;;20.26;53.86;100618.06;5029405;28;20216;-71
2022/10/06 08:52:55;;;;;;;0.40;0.40;;;;;;;20.40;52.96;100617.34;5027494;28;20711;-71
2022/10/06 08:55:34;;;;;;;0.40;0.40;;;;;;;20.55;51.85;100619.16;5029017;28;20616;-71
2022/10/06 08:58:27;;;;;;;0.30;0.30;;;;;;;20.61;52.09;100618.03;5031886;28;20260;-70
2022/10/06 09:00:55;;;;;;;0.30;0.30;;;;;;;20.71;51.47;100614.84;5027032;28;20200;-70
2022/10/06 09:03:28;;;;;;;0.30;0.30;;;;;;;20.87;50.11;100620.91;5031319;28;20236;-70
2022/10/06 09:06:03;;;;;;;0.37;0.37;;;;;;;20.90;50.88;100615.53;5030552;28;20210;-71
2022/10/06 09:08:42;;;;;;;0.50;0.50;;;;;;;20.99;49.82;100613.38;5036028;28;20212;-70
2022/10/06 09:11:26;;;;;;;0.40;0.40;;;;;;;21.12;49.81;100604.00;5031342;28;20204;-71
2022/10/06 09:14:00;;;;;;;0.40;0.40;;;;;;;21.18;50.17;100601.06;5020651;28;20551;-69
2022/10/06 09:16:32;;;;;;;0.40;0.40;;;;;;;21.28;47.95;100594.41;5030491;28;20230;-68
2022/10/06 09:19:08;;;;;;;0.50;0.50;;;;;;;21.19;48.13;100590.56;5030628;28;20201;-72
2022/10/06 09:21:40;;;;;;;0.43;0.43;;;;;;;21.19;48.63;100589.72;5029646;28;20204;-72
2022/10/06 09:24:13;;;;;;;1.20;0.63;;;;;;;21.22;48.41;100589.53;5029279;28;20266;-73
2022/10/06 09:26:44;;;;;;;0.30;0.30;;;;;;;21.24;48.53;100582.47;5029293;28;20623;-73
2022/10/06 09:29:13;;;;;;;0.30;0.30;;;;;;;21.34;48.49;100588.84;5028914;28;20209;-73
2022/10/06 09:31:42;;;;;;;0.40;0.40;;;;;;;21.48;48.22;100575.03;5027553;28;20201;-72
2022/10/06 09:34:22;;;;;;;0.30;0.30;;;;;;;21.35;47.61;100582.72;5030019;28;20582;-72
2022/10/06 09:37:01;;;;;;;0.30;0.30;;;;;;;21.37;48.22;100562.59;5030178;28;20211;-73
2022/10/06 09:39:32;;;;;;;0.30;0.30;;;;;;;21.43;45.96;100568.31;5029802;28;20288;-73
2022/10/06 09:42:02;;;;;;;0.50;0.50;;;;;;;21.41;47.84;100559.75;5026985;28;20287;-73
2022/10/06 09:44:37;;;;;;;0.40;0.40;;;;;;;21.51;45.49;100570.50;5029995;28;20239;-73
2022/10/06 09:47:23;;;;;;;0.40;0.40;;;;;;;21.52;47.47;100553.91;5020735;28;20283;-73
2022/10/06 09:50:02;;;;;;;0.40;0.40;;;;;;;21.57;46.36;100561.47;5027292;28;20212;-73
2022/10/06 09:52:29;;;;;;;0.30;0.30;;;;;;;21.48;47.65;100565.47;5029691;28;20782;-72
2022/10/06 09:55:05;;;;;;;0.50;0.50;;;;;;;21.50;48.72;100568.81;5029680;28;20200;-73
2022/10/06 09:57:33;;;;;;;0.50;0.50;;;;;;;21.60;46.67;100564.75;5029724;28;20750;-73
2022/10/06 10:00:02;;;;;;;0.30;0.30;;;;;;;21.61;47.67;100556.00;5030899;28;20290;-73
2022/10/06 10:02:35;;;;;;;0.30;0.30;;;;;;;21.70;46.92;100555.47;5029286;28;20204;-73
2022/10/06 10:05:05;;;;;;;0.30;0.30;;;;;;;21.76;46.32;100555.09;5030036;28;20577;-74
2022/10/06 10:07:35;;;;;;;0.30;0.30;;;;;;;21.78;45.83;100553.25;5029121;28;20204;-72
2022/10/06 10:10:27;;;;;;;0.30;0.30;;;;;;;21.74;46.45;100551.75;5029857;28;20263;-73
2022/10/06 10:12:55;;;;;;;0.30;0.30;;;;;;;21.69;45.88;100547.72;5028496;28;20205;-74
2022/10/06 10:15:28;;;;;;;0.40;0.40;;;;;;;21.79;47.07;100544.50;5029041;28;20223;-72
2022/10/06 10:17:57;;;;;;;0.40;0.40;;;;;;;21.93;47.76;100541.09;5030485;28;20660;-72
2022/10/06 10:20:33;;;;;;;0.30;0.30;;;;;;;21.76;45.95;100536.00;5034161;28;20254;-74
2022/10/06 10:23:03;;;;;;;0.50;0.50;;;;;;;21.83;45.91;100530.34;5033734;28;20959;-73
2022/10/06 10:25:52;;;;;;;0.40;0.40;;;;;;;22.01;45.93;100532.81;5031847;28;20209;-72
2022/10/06 10:28:55;;;;;;;0.40;0.40;;;;;;;22.03;44.92;100525.75;5025808;28;20657;-72
2022/10/06 10:31:33;;;;;;;0.40;0.40;;;;;;;22.12;45.41;100517.34;5031218;28;20209;-71
2022/10/06 10:34:08;;;;;;;0.30;0.30;;;;;;;22.10;45.38;100516.63;5035703;28;20223;-72
2022/10/06 10:36:39;;;;;;;0.40;0.40;;;;;;;22.16;44.62;100511.00;5033959;28;20293;-71
2022/10/06 10:39:14;;;;;;;0.40;0.40;;;;;;;22.15;43.93;100509.31;5033347;28;20211;-71
2022/10/06 10:41:47;;;;;;;0.33;0.33;;;;;;;22.18;44.55;100502.16;5032660;28;20215;-71
2022/10/06 10:44:25;;;;;;;0.40;0.40;;;;;;;22.35;45.42;100501.13;5030417;28;20208;-72
2022/10/06 10:46:57;;;;;;;0.40;0.40;;;;;;;22.28;43.75;100484.13;5028395;28;20727;-71
2022/10/06 10:49:28;;;;;;;0.50;0.50;;;;;;;22.34;43.79;100489.00;5031563;28;20201;-71
2022/10/06 10:52:00;;;;;;;0.30;0.30;;;;;;;22.44;43.81;100490.09;5030691;28;20204;-71
2022/10/06 10:54:34;;;;;;;0.30;0.30;;;;;;;22.59;44.57;100478.69;5032755;28;20232;-71
2022/10/06 10:57:02;;;;;;;0.40;0.40;;;;;;;22.65;42.49;100483.53;5033457;28;20288;-71
2022/10/06 10:59:35;;;;;;;0.50;0.50;;;;;;;22.59;41.86;100476.06;5033714;28;20205;-71
2022/10/06 11:02:12;;;;;;;0.40;0.40;;;;;;;22.65;43.38;100475.69;5033191;28;20202;-70
2022/10/06 11:04:45;;;;;;;0.40;0.40;;;;;;;22.59;41.71;100467.38;5014563;28;20208;-72
2022/10/06 11:07:21;;;;;;;0.20;0.20;;;;;;;22.67;42.63;100471.25;5016993;28;20562;-72
2022/10/06 11:09:57;;;;;;;0.30;0.30;;;;;;;22.74;44.25;100462.09;5015256;28;20220;-74
2022/10/06 11:12:42;;;;;;;0.40;0.40;;;;;;;22.86;44.51;100453.47;5013012;28;20194;-72
2022/10/06 11:15:20;;;;;;;0.30;0.30;;;;;;;22.99;43.63;100451.72;5011105;28;20662;-71
2022/10/06 11:17:49;;;;;;;0.30;0.30;;;;;;;23.06;43.85;100456.56;5013367;28;20206;-71
2022/10/06 11:20:33;;;;;;;0.30;0.30;;;;;;;23.08;42.66;100454.69;5012818;28;20694;-70
2022/10/06 11:23:13;;;;;;;0.30;0.30;;;;;;;23.08;43.88;100450.28;5012979;28;20272;-71
2022/10/06 11:25:44;;;;;;;0.30;0.30;;;;;;;23.06;41.64;100451.34;5013420;28;20633;-71
2022/10/06 11:28:18;;;;;;;0.40;0.40;;;;;;;23.09;42.30;100440.66;5012993;28;20663;-72
2022/10/06 11:30:58;;;;;;;0.30;0.30;;;;;;;23.02;41.32;100440.22;5010940;28;20232;-72
2022/10/06 11:33:31;;;;;;;0.30;0.30;;;;;;;23.01;40.62;100434.16;5011446;28;20205;-70
2022/10/06 11:35:58;;;;;;;0.50;0.50;;;;;;;23.09;40.94;100427.59;5012101;28;20701;-71
2022/10/06 11:38:29;;;;;;;0.40;0.40;;;;;;;23.20;41.28;100438.19;5012883;28;20202;-71
2022/10/06 11:41:08;;;;;;;0.30;0.30;;;;;;;23.10;42.12;100437.97;5012361;28;20256;-71
2022/10/06 11:43:41;;;;;;;0.30;0.30;;;;;;;23.17;42.19;100428.75;5011411;28;20264;-71
2022/10/06 11:46:22;;;;;;;0.27;0.27;;;;;;;23.13;39.56;100426.47;4998511;28;20669;-70
2022/10/06 11:48:50;;;;;;;0.30;0.30;;;;;;;23.18;40.57;100419.13;5010878;28;20206;-70